createdAt,value
2023-02-17T00:00:54.209Z,985.57
2023-02-17T00:01:54.190Z,985.56
2023-02-17T00:02:54.204Z,985.64
2023-02-17T00:03:54.274Z,985.56
2023-02-17T00:04:54.160Z,985.50
2023-02-17T00:05:54.148Z,985.46
2023-02-17T00:06:54.137Z,985.50
2023-02-17T00:07:54.111Z,985.47
2023-02-17T00:08:54.095Z,985.50
2023-02-17T00:09:54.083Z,985.45
2023-02-17T00:10:54.066Z,985.51
2023-02-17T00:11:54.053Z,985.45
2023-02-17T00:12:54.040Z,985.46
2023-02-17T00:13:56.285Z,985.50
2023-02-17T00:14:54.373Z,985.56
2023-02-17T00:15:54.043Z,985.55
2023-02-17T00:16:53.993Z,985.54
2023-02-17T00:17:54.078Z,985.46
2023-02-17T00:18:54.005Z,985.54
2023-02-17T00:19:53.952Z,985.50
2023-02-17T00:20:53.937Z,985.53
2023-02-17T00:21:53.925Z,985.44
2023-02-17T00:22:53.912Z,985.51
2023-02-17T00:23:53.892Z,985.41
2023-02-17T00:24:53.882Z,985.46
2023-02-17T00:25:53.964Z,985.43
2023-02-17T00:26:53.856Z,985.46
2023-02-17T00:27:53.842Z,985.47
2023-02-17T00:28:53.829Z,985.42
2023-02-17T00:29:53.883Z,985.36
2023-02-17T00:30:53.897Z,985.40
2023-02-17T00:31:54.004Z,985.34
2023-02-17T00:32:53.779Z,985.41
2023-02-17T00:33:53.765Z,985.32
2023-02-17T00:34:53.847Z,985.32
2023-02-17T00:35:53.734Z,985.36
2023-02-17T00:36:53.724Z,985.44
2023-02-17T00:37:53.710Z,985.31
2023-02-17T00:38:53.700Z,985.34
2023-02-17T00:39:53.692Z,985.40
2023-02-17T00:40:53.674Z,985.38
2023-02-17T00:41:53.666Z,985.37
2023-02-17T00:42:53.649Z,985.36
2023-02-17T00:43:53.640Z,985.36
2023-02-17T00:44:53.631Z,985.34
2023-02-17T00:45:53.605Z,985.35
2023-02-17T00:46:53.654Z,985.32
2023-02-17T00:47:53.578Z,985.19
2023-02-17T00:48:53.688Z,985.25
2023-02-17T00:49:53.550Z,985.28
2023-02-17T00:50:53.581Z,985.27
2023-02-17T00:51:53.533Z,985.27
2023-02-17T00:52:53.764Z,985.25
2023-02-17T00:53:53.498Z,985.22
2023-02-17T00:54:53.490Z,985.22
2023-02-17T00:55:53.479Z,985.18
2023-02-17T00:56:53.462Z,985.23
2023-02-17T00:57:53.447Z,985.21
2023-02-17T00:58:53.432Z,985.24
2023-02-17T00:59:53.425Z,985.21
2023-02-17T01:00:53.410Z,985.22
2023-02-17T01:01:53.457Z,985.20
2023-02-17T01:02:53.384Z,985.22
2023-02-17T01:03:53.369Z,985.28
2023-02-17T01:04:53.437Z,985.37
2023-02-17T01:05:53.336Z,985.37
2023-02-17T01:06:53.347Z,985.34
2023-02-17T01:07:53.325Z,985.30
2023-02-17T01:08:53.307Z,985.26
2023-02-17T01:09:53.285Z,985.21
2023-02-17T01:10:53.286Z,985.29
2023-02-17T01:11:53.261Z,985.30
2023-02-17T01:12:53.246Z,985.32
2023-02-17T01:13:53.233Z,985.32
2023-02-17T01:14:53.218Z,985.33
2023-02-17T01:15:53.257Z,985.29
2023-02-17T01:16:53.199Z,985.31
2023-02-17T01:17:53.175Z,985.31
2023-02-17T01:18:53.169Z,985.31
2023-02-17T01:19:53.159Z,985.33
2023-02-17T01:20:53.144Z,985.36
2023-02-17T01:21:53.132Z,985.36
2023-02-17T01:22:53.138Z,985.32
2023-02-17T01:23:53.119Z,985.37
2023-02-17T01:24:53.084Z,985.33
2023-02-17T01:25:53.079Z,985.41
2023-02-17T01:26:53.073Z,985.39
2023-02-17T01:27:53.042Z,985.32
2023-02-17T01:28:53.031Z,985.26
2023-02-17T01:29:53.014Z,985.32
2023-02-17T01:30:53.029Z,985.32
2023-02-17T01:31:53.040Z,985.24
2023-02-17T01:32:52.979Z,985.26
2023-02-17T01:33:52.962Z,985.25
2023-02-17T01:34:52.957Z,985.20
2023-02-17T01:35:52.941Z,985.18
2023-02-17T01:36:52.931Z,985.18
2023-02-17T01:37:52.912Z,985.17
2023-02-17T01:38:52.926Z,985.19
2023-02-17T01:39:52.880Z,985.17
2023-02-17T01:40:52.876Z,985.14
2023-02-17T01:41:52.856Z,985.17
2023-02-17T01:42:52.841Z,985.11
2023-02-17T01:43:52.832Z,985.14
2023-02-17T01:44:52.819Z,985.12
2023-02-17T01:45:52.810Z,985.09
2023-02-17T01:46:52.856Z,985.11
2023-02-17T01:47:52.772Z,985.02
2023-02-17T01:48:52.766Z,985.07
2023-02-17T01:49:52.751Z,984.99
2023-02-17T01:50:52.738Z,985.04
2023-02-17T01:51:52.719Z,984.98
2023-02-17T01:52:52.712Z,984.96
2023-02-17T01:53:52.689Z,985.00
2023-02-17T01:54:52.701Z,985.06
2023-02-17T01:55:52.668Z,984.97
2023-02-17T01:56:52.668Z,985.00
2023-02-17T01:57:52.639Z,985.01
2023-02-17T01:58:52.635Z,984.96
2023-02-17T01:59:52.617Z,984.89
2023-02-17T02:00:52.604Z,984.89
2023-02-17T02:01:52.818Z,984.79
2023-02-17T02:02:52.701Z,984.81
2023-02-17T02:03:52.567Z,984.82
2023-02-17T02:04:52.549Z,984.75
2023-02-17T02:05:52.529Z,984.67
2023-02-17T02:06:52.527Z,984.73
2023-02-17T02:07:52.507Z,984.73
2023-02-17T02:08:52.489Z,984.81
2023-02-17T02:09:52.478Z,984.77
2023-02-17T02:10:52.488Z,984.74
2023-02-17T02:11:52.460Z,984.75
2023-02-17T02:12:52.440Z,984.70
2023-02-17T02:13:52.434Z,984.70
2023-02-17T02:14:52.422Z,984.69
2023-02-17T02:15:52.398Z,984.69
2023-02-17T02:16:52.392Z,984.76
2023-02-17T02:17:52.367Z,984.80
2023-02-17T02:18:52.360Z,984.79
2023-02-17T02:19:52.358Z,984.74
2023-02-17T02:20:52.337Z,984.72
2023-02-17T02:21:52.325Z,984.68
2023-02-17T02:22:52.304Z,984.74
2023-02-17T02:23:52.298Z,984.74
2023-02-17T02:24:52.289Z,984.69
2023-02-17T02:25:52.617Z,984.72
2023-02-17T02:26:52.281Z,984.70
2023-02-17T02:27:52.241Z,984.74
2023-02-17T02:28:52.229Z,984.70
2023-02-17T02:29:52.217Z,984.67
2023-02-17T02:30:52.236Z,984.64
2023-02-17T02:31:52.216Z,984.69
2023-02-17T02:32:52.181Z,984.71
2023-02-17T02:33:52.175Z,984.68
2023-02-17T02:34:52.150Z,984.65
2023-02-17T02:35:52.130Z,984.67
2023-02-17T02:36:52.125Z,984.63
2023-02-17T02:37:52.109Z,984.61
2023-02-17T02:38:52.099Z,984.60
2023-02-17T02:39:52.099Z,984.63
2023-02-17T02:40:52.077Z,984.61
2023-02-17T02:41:52.059Z,984.63
2023-02-17T02:42:52.068Z,984.60
2023-02-17T02:43:52.026Z,984.57
2023-02-17T02:44:52.019Z,984.57
2023-02-17T02:45:52.044Z,984.59
2023-02-17T02:46:51.994Z,984.65
2023-02-17T02:47:51.970Z,984.70
2023-02-17T02:48:51.955Z,984.68
2023-02-17T02:49:51.947Z,984.72
2023-02-17T02:50:51.934Z,984.63
2023-02-17T02:51:51.922Z,984.61
2023-02-17T02:52:51.909Z,984.59
2023-02-17T02:53:51.891Z,984.64
2023-02-17T02:54:51.882Z,984.58
2023-02-17T02:55:51.866Z,984.61
2023-02-17T02:56:51.858Z,984.64
2023-02-17T02:57:51.840Z,984.64
2023-02-17T02:58:51.852Z,984.62
2023-02-17T02:59:51.825Z,984.67
2023-02-17T03:00:51.807Z,984.66
2023-02-17T03:01:51.789Z,984.65
2023-02-17T03:02:51.778Z,984.54
2023-02-17T03:03:51.829Z,984.65
2023-02-17T03:04:51.749Z,984.59
2023-02-17T03:05:51.737Z,984.55
2023-02-17T03:06:51.714Z,984.49
2023-02-17T03:07:51.705Z,984.47
2023-02-17T03:08:51.696Z,984.51
2023-02-17T03:09:51.682Z,984.47
2023-02-17T03:10:51.665Z,984.53
2023-02-17T03:11:51.681Z,984.61
2023-02-17T03:12:51.634Z,984.49
2023-02-17T03:13:51.625Z,984.55
2023-02-17T03:14:51.634Z,984.54
2023-02-17T03:15:51.600Z,984.51
2023-02-17T03:16:51.645Z,984.52
2023-02-17T03:17:51.575Z,984.53
2023-02-17T03:18:51.565Z,984.56
2023-02-17T03:19:51.545Z,984.52
2023-02-17T03:20:51.529Z,984.55
2023-02-17T03:21:51.564Z,984.54
2023-02-17T03:22:51.504Z,984.57
2023-02-17T03:23:51.492Z,984.52
2023-02-17T03:24:51.473Z,984.54
2023-02-17T03:25:51.479Z,984.50
2023-02-17T03:27:16.986Z,984.45
2023-02-17T03:28:16.980Z,984.48
2023-02-17T03:29:16.962Z,984.51
2023-02-17T03:30:17.000Z,984.46
2023-02-17T03:31:17.026Z,984.50
2023-02-17T03:32:16.982Z,984.44
2023-02-17T03:33:16.904Z,984.44
2023-02-17T03:34:16.897Z,984.42
2023-02-17T03:35:16.873Z,984.36
2023-02-17T03:36:16.863Z,984.42
2023-02-17T03:37:17.013Z,984.37
2023-02-17T03:38:16.837Z,984.36
2023-02-17T03:39:16.826Z,984.35
2023-02-17T03:40:16.813Z,984.29
2023-02-17T03:41:16.798Z,984.38
2023-02-17T03:42:16.784Z,984.34
2023-02-17T03:43:17.972Z,984.32
2023-02-17T03:44:16.754Z,984.25
2023-02-17T03:45:16.736Z,984.30
2023-02-17T03:46:16.850Z,984.24
2023-02-17T03:47:16.720Z,984.26
2023-02-17T03:48:16.702Z,984.33
2023-02-17T03:49:16.700Z,984.32
2023-02-17T03:50:16.679Z,984.42
2023-02-17T03:51:16.670Z,984.48
2023-02-17T03:52:16.649Z,984.42
2023-02-17T03:53:16.635Z,984.47
2023-02-17T03:54:16.623Z,984.39
2023-02-17T03:55:16.608Z,984.39
2023-02-17T03:56:16.590Z,984.38
2023-02-17T03:57:16.576Z,984.36
2023-02-17T03:58:16.569Z,984.32
2023-02-17T03:59:16.555Z,984.32
2023-02-17T04:00:16.537Z,984.31
2023-02-17T04:01:16.582Z,984.34
2023-02-17T04:02:16.524Z,984.43
2023-02-17T04:03:16.509Z,984.44
2023-02-17T04:04:16.507Z,984.52
2023-02-17T04:05:16.478Z,984.51
2023-02-17T04:06:16.463Z,984.55
2023-02-17T04:07:16.440Z,984.52
2023-02-17T04:08:16.428Z,984.57
2023-02-17T04:09:16.416Z,984.56
2023-02-17T04:10:16.403Z,984.61
2023-02-17T04:11:16.381Z,984.58
2023-02-17T04:12:16.474Z,984.53
2023-02-17T04:13:16.366Z,984.58
2023-02-17T04:14:16.340Z,984.53
2023-02-17T04:15:16.330Z,984.47
2023-02-17T04:16:16.312Z,984.55
2023-02-17T04:17:16.301Z,984.58
2023-02-17T04:18:16.310Z,984.57
2023-02-17T04:19:16.270Z,984.62
2023-02-17T04:20:16.265Z,984.59
2023-02-17T04:21:16.249Z,984.64
2023-02-17T04:22:16.237Z,984.65
2023-02-17T04:23:16.224Z,984.57
2023-02-17T04:24:16.211Z,984.52
2023-02-17T04:25:16.194Z,984.62
2023-02-17T04:26:16.180Z,984.50
2023-02-17T04:27:16.173Z,984.50
2023-02-17T04:28:16.159Z,984.50
2023-02-17T04:29:16.138Z,984.56
2023-02-17T04:30:16.169Z,984.62
2023-02-17T04:31:16.293Z,984.64
2023-02-17T04:32:16.097Z,984.63
2023-02-17T04:33:16.086Z,984.58
2023-02-17T04:34:16.086Z,984.54
2023-02-17T04:35:16.059Z,984.56
2023-02-17T04:36:16.034Z,984.56
2023-02-17T04:37:16.034Z,984.53
2023-02-17T04:38:16.012Z,984.53
2023-02-17T04:39:16.001Z,984.60
2023-02-17T04:40:15.987Z,984.58
2023-02-17T04:41:15.968Z,984.57
2023-02-17T04:42:15.959Z,984.58
2023-02-17T04:43:15.942Z,984.51
2023-02-17T04:44:15.933Z,984.55
2023-02-17T04:45:16.265Z,984.57
2023-02-17T04:46:15.952Z,984.50
2023-02-17T04:47:15.895Z,984.59
2023-02-17T04:48:15.874Z,984.59
2023-02-17T04:49:15.870Z,984.59
2023-02-17T04:50:15.866Z,984.56
2023-02-17T04:51:15.835Z,984.64
2023-02-17T04:52:15.828Z,984.61
2023-02-17T04:53:15.811Z,984.54
2023-02-17T04:54:15.808Z,984.53
2023-02-17T04:55:15.787Z,984.58
2023-02-17T04:56:15.779Z,984.59
2023-02-17T04:57:15.764Z,984.57
2023-02-17T04:58:15.743Z,984.58
2023-02-17T04:59:15.726Z,984.60
2023-02-17T05:00:15.708Z,984.61
2023-02-17T05:01:15.726Z,984.56
2023-02-17T05:02:15.690Z,984.56
2023-02-17T05:03:15.683Z,984.53
2023-02-17T05:04:15.662Z,984.52
2023-02-17T05:05:15.660Z,984.43
2023-02-17T05:06:15.658Z,984.43
2023-02-17T05:07:15.619Z,984.45
2023-02-17T05:08:15.609Z,984.39
2023-02-17T05:09:15.591Z,984.50
2023-02-17T05:10:15.580Z,984.45
2023-02-17T05:11:15.571Z,984.45
2023-02-17T05:12:15.561Z,984.49
2023-02-17T05:13:15.541Z,984.43
2023-02-17T05:14:15.524Z,984.38
2023-02-17T05:15:15.508Z,984.41
2023-02-17T05:16:15.559Z,984.38
2023-02-17T05:17:15.480Z,984.41
2023-02-17T05:18:15.480Z,984.35
2023-02-17T05:19:15.460Z,984.40
2023-02-17T05:20:15.449Z,984.32
2023-02-17T05:21:15.430Z,984.44
2023-02-17T05:22:15.437Z,984.38
2023-02-17T05:23:15.404Z,984.39
2023-02-17T05:24:15.392Z,984.30
2023-02-17T05:25:15.379Z,984.30
2023-02-17T05:26:15.363Z,984.35
2023-02-17T05:27:15.354Z,984.26
2023-02-17T05:28:15.332Z,984.24
2023-02-17T05:29:15.324Z,984.26
2023-02-17T05:30:15.337Z,984.30
2023-02-17T05:31:15.338Z,984.27
2023-02-17T05:32:15.274Z,984.27
2023-02-17T05:33:15.262Z,984.26
2023-02-17T05:34:15.257Z,984.27
2023-02-17T05:35:15.246Z,984.28
2023-02-17T05:36:15.230Z,984.32
2023-02-17T05:37:15.220Z,984.24
2023-02-17T05:38:15.228Z,984.27
2023-02-17T05:39:15.188Z,984.26
2023-02-17T05:40:15.180Z,984.21
2023-02-17T05:41:15.154Z,984.22
2023-02-17T05:42:15.154Z,984.23
2023-02-17T05:43:15.135Z,984.17
2023-02-17T05:44:15.119Z,984.18
2023-02-17T05:45:15.110Z,984.24
2023-02-17T05:46:15.160Z,984.16
2023-02-17T05:47:15.083Z,984.16
2023-02-17T05:48:15.059Z,984.15
2023-02-17T05:49:15.053Z,984.16
2023-02-17T05:50:15.244Z,984.20
2023-02-17T05:51:15.024Z,984.18
2023-02-17T05:52:15.015Z,984.23
2023-02-17T05:53:15.010Z,984.20
2023-02-17T05:54:15.009Z,984.24
2023-02-17T05:55:14.971Z,984.15
2023-02-17T05:56:14.959Z,984.29
2023-02-17T05:57:14.945Z,984.30
2023-02-17T05:58:14.924Z,984.32
2023-02-17T05:59:14.919Z,984.44
2023-02-17T06:00:14.898Z,984.45
2023-02-17T06:01:15.192Z,984.41
2023-02-17T06:02:14.875Z,984.39
2023-02-17T06:03:14.913Z,984.45
2023-02-17T06:04:15.262Z,984.46
2023-02-17T06:05:14.882Z,984.47
2023-02-17T06:06:14.824Z,984.51
2023-02-17T06:07:14.811Z,984.47
2023-02-17T06:08:14.802Z,984.45
2023-02-17T06:09:14.783Z,984.48
2023-02-17T06:10:14.794Z,984.43
2023-02-17T06:11:14.754Z,984.57
2023-02-17T06:12:14.738Z,984.53
2023-02-17T06:13:14.737Z,984.46
2023-02-17T06:14:14.717Z,984.60
2023-02-17T06:15:14.700Z,984.55
2023-02-17T06:16:14.681Z,984.56
2023-02-17T06:17:14.872Z,984.55
2023-02-17T06:18:14.660Z,984.50
2023-02-17T06:19:14.645Z,984.55
2023-02-17T06:20:14.632Z,984.56
2023-02-17T06:21:14.636Z,984.60
2023-02-17T06:22:14.608Z,984.62
2023-02-17T06:23:14.602Z,984.57
2023-02-17T06:24:14.578Z,984.55
2023-02-17T06:25:14.819Z,984.61
2023-02-17T06:26:14.578Z,984.58
2023-02-17T06:27:14.550Z,984.63
2023-02-17T06:28:14.527Z,984.59
2023-02-17T06:29:14.517Z,984.58
2023-02-17T06:30:14.645Z,984.59
2023-02-17T06:31:14.577Z,984.63
2023-02-17T06:32:14.475Z,984.65
2023-02-17T06:33:14.460Z,984.65
2023-02-17T06:34:14.443Z,984.69
2023-02-17T06:35:14.434Z,984.65
2023-02-17T06:36:14.408Z,984.72
2023-02-17T06:37:14.404Z,984.71
2023-02-17T06:38:14.406Z,984.70
2023-02-17T06:39:14.371Z,984.70
2023-02-17T06:40:14.367Z,984.73
2023-02-17T06:41:14.343Z,984.78
2023-02-17T06:42:14.348Z,984.85
2023-02-17T06:43:14.333Z,984.84
2023-02-17T06:44:14.311Z,984.83
2023-02-17T06:45:14.293Z,984.86
2023-02-17T06:46:14.321Z,984.87
2023-02-17T06:47:14.281Z,984.88
2023-02-17T06:48:14.256Z,984.84
2023-02-17T06:49:14.238Z,984.88
2023-02-17T06:50:14.225Z,984.77
2023-02-17T06:51:14.208Z,984.83
2023-02-17T06:52:14.191Z,984.80
2023-02-17T06:53:14.175Z,984.81
2023-02-17T06:54:14.165Z,984.84
2023-02-17T06:55:14.154Z,984.85
2023-02-17T06:56:14.144Z,984.83
2023-02-17T06:57:14.128Z,984.78
2023-02-17T06:58:14.142Z,984.84
2023-02-17T06:59:14.098Z,984.81
2023-02-17T07:00:14.081Z,984.80
2023-02-17T07:01:14.068Z,984.77
2023-02-17T07:02:14.140Z,984.82
2023-02-17T07:03:14.093Z,984.81
2023-02-17T07:04:14.028Z,984.81
2023-02-17T07:05:14.032Z,984.89
2023-02-17T07:06:14.003Z,984.87
2023-02-17T07:07:14.246Z,984.87
2023-02-17T07:08:13.997Z,984.86
2023-02-17T07:09:14.017Z,984.81
2023-02-17T07:10:14.205Z,984.89
2023-02-17T07:11:13.954Z,984.86
2023-02-17T07:12:13.923Z,984.91
2023-02-17T07:13:13.914Z,984.94
2023-02-17T07:14:13.924Z,984.96
2023-02-17T07:15:13.886Z,984.92
2023-02-17T07:16:13.907Z,984.99
2023-02-17T07:17:13.863Z,985.03
2023-02-17T07:18:13.840Z,985.01
2023-02-17T07:19:13.835Z,985.03
2023-02-17T07:20:13.815Z,985.00
2023-02-17T07:21:13.805Z,985.08
2023-02-17T07:22:13.786Z,985.04
2023-02-17T07:23:13.778Z,985.13
2023-02-17T07:24:13.777Z,985.09
2023-02-17T07:25:13.757Z,985.15
2023-02-17T07:26:13.750Z,985.15
2023-02-17T07:27:13.724Z,985.06
2023-02-17T07:28:13.962Z,985.09
2023-02-17T07:29:13.695Z,985.11
2023-02-17T07:30:13.767Z,985.16
2023-02-17T07:31:13.880Z,985.13
2023-02-17T07:32:13.658Z,985.16
2023-02-17T07:33:13.650Z,985.13
2023-02-17T07:34:13.642Z,985.22
2023-02-17T07:35:13.618Z,985.19
2023-02-17T07:36:13.619Z,985.18
2023-02-17T07:37:13.592Z,985.10
2023-02-17T07:38:13.575Z,985.12
2023-02-17T07:39:13.556Z,985.20
2023-02-17T07:40:13.540Z,985.19
2023-02-17T07:41:13.528Z,985.24
2023-02-17T07:42:13.516Z,985.18
2023-02-17T07:43:13.499Z,985.24
2023-02-17T07:44:13.500Z,985.27
2023-02-17T07:45:13.473Z,985.27
2023-02-17T07:46:13.582Z,985.27
2023-02-17T07:47:13.447Z,985.30
2023-02-17T07:48:13.433Z,985.26
2023-02-17T07:49:13.423Z,985.23
2023-02-17T07:50:13.552Z,985.25
2023-02-17T07:51:13.395Z,985.29
2023-02-17T07:52:13.380Z,985.24
2023-02-17T07:53:13.363Z,985.24
2023-02-17T07:54:13.356Z,985.24
2023-02-17T07:55:13.334Z,985.24
2023-02-17T07:56:13.318Z,985.23
2023-02-17T07:57:13.307Z,985.23
2023-02-17T07:58:13.290Z,985.17
2023-02-17T07:59:13.298Z,985.19
2023-02-17T08:00:13.279Z,985.21
2023-02-17T08:01:13.254Z,985.17
2023-02-17T08:02:13.296Z,985.16
2023-02-17T08:03:13.225Z,985.27
2023-02-17T08:04:13.264Z,985.21
2023-02-17T08:05:13.196Z,985.24
2023-02-17T08:06:13.180Z,985.29
2023-02-17T08:07:13.169Z,985.30
2023-02-17T08:08:13.151Z,985.29
2023-02-17T08:09:13.150Z,985.26
2023-02-17T08:10:13.151Z,985.34
2023-02-17T08:11:13.145Z,985.28
2023-02-17T08:12:13.352Z,985.34
2023-02-17T08:13:13.159Z,985.32
2023-02-17T08:14:13.368Z,985.29
2023-02-17T08:15:13.095Z,985.29
2023-02-17T08:16:13.117Z,985.29
2023-02-17T08:17:13.053Z,985.31
2023-02-17T08:18:13.097Z,985.25
2023-02-17T08:19:13.032Z,985.34
2023-02-17T08:20:12.990Z,985.35
2023-02-17T08:21:12.978Z,985.28
2023-02-17T08:22:13.166Z,985.33
2023-02-17T08:23:12.952Z,985.28
2023-02-17T08:24:12.964Z,985.31
2023-02-17T08:25:13.267Z,985.34
2023-02-17T08:26:12.947Z,985.24
2023-02-17T08:27:12.909Z,985.34
2023-02-17T08:28:12.888Z,985.26
2023-02-17T08:29:12.873Z,985.32
2023-02-17T08:30:12.928Z,985.29
2023-02-17T08:31:13.009Z,985.25
2023-02-17T08:32:12.887Z,985.23
2023-02-17T08:33:12.814Z,985.22
2023-02-17T08:34:12.853Z,985.27
2023-02-17T08:35:12.841Z,985.38
2023-02-17T08:36:12.830Z,985.32
2023-02-17T08:37:12.882Z,985.34
2023-02-17T08:38:12.752Z,985.36
2023-02-17T08:39:12.727Z,985.35
2023-02-17T08:40:12.726Z,985.31
2023-02-17T08:41:12.707Z,985.23
2023-02-17T08:42:12.692Z,985.30
2023-02-17T08:43:12.713Z,985.28
2023-02-17T08:44:12.684Z,985.28
2023-02-17T08:45:12.707Z,985.26
2023-02-17T08:46:12.723Z,985.30
2023-02-17T08:47:12.658Z,985.39
2023-02-17T08:48:12.654Z,985.37
2023-02-17T08:49:12.598Z,985.24
2023-02-17T08:50:12.610Z,985.37
2023-02-17T08:51:12.590Z,985.42
2023-02-17T08:52:12.615Z,985.30
2023-02-17T08:53:12.548Z,985.31
2023-02-17T08:54:12.537Z,985.22
2023-02-17T08:55:12.567Z,985.27
2023-02-17T08:56:12.501Z,985.36
2023-02-17T08:57:12.537Z,985.32
2023-02-17T08:58:12.623Z,985.23
2023-02-17T08:59:12.475Z,985.29
2023-02-17T09:00:12.453Z,985.28
2023-02-17T09:01:12.479Z,985.35
2023-02-17T09:02:12.426Z,985.23
2023-02-17T09:03:12.410Z,985.26
2023-02-17T09:04:12.813Z,985.15
2023-02-17T09:05:12.461Z,985.19
2023-02-17T09:06:12.391Z,985.13
2023-02-17T09:07:12.354Z,985.13
2023-02-17T09:08:12.344Z,985.13
2023-02-17T09:09:12.343Z,985.08
2023-02-17T09:10:12.322Z,985.19
2023-02-17T09:11:12.300Z,985.16
2023-02-17T09:12:12.288Z,985.20
2023-02-17T09:13:12.332Z,985.23
2023-02-17T09:14:12.325Z,985.28
2023-02-17T09:15:12.258Z,985.31
2023-02-17T09:16:12.363Z,985.34
2023-02-17T09:17:12.220Z,985.35
2023-02-17T09:18:12.201Z,985.34
2023-02-17T09:19:12.206Z,985.32
2023-02-17T09:20:24.006Z,985.26
2023-02-17T09:21:13.221Z,985.43
2023-02-17T09:22:26.244Z,985.36
2023-02-17T09:23:13.177Z,985.41
2023-02-17T09:24:12.131Z,985.38
2023-02-17T09:25:12.204Z,985.35
2023-02-17T09:26:12.094Z,985.36
2023-02-17T09:27:12.096Z,985.37
2023-02-17T09:28:12.133Z,985.38
2023-02-17T09:29:12.259Z,985.33
2023-02-17T09:30:12.153Z,985.39
2023-02-17T09:31:12.349Z,985.33
2023-02-17T09:32:12.145Z,985.35
2023-02-17T09:33:12.038Z,985.31
2023-02-17T09:34:11.985Z,985.24
2023-02-17T09:35:12.044Z,985.25
2023-02-17T09:36:11.964Z,985.26
2023-02-17T09:37:11.946Z,985.17
2023-02-17T09:38:11.959Z,985.23
2023-02-17T09:39:13.682Z,985.22
2023-02-17T09:40:11.958Z,985.20
2023-02-17T09:41:11.890Z,985.21
2023-02-17T09:42:11.876Z,985.18
2023-02-17T09:43:11.868Z,985.23
2023-02-17T09:44:11.855Z,985.10
2023-02-17T09:45:12.915Z,985.10
2023-02-17T09:46:11.828Z,985.17
2023-02-17T09:47:11.877Z,985.15
2023-02-17T09:48:11.937Z,985.16
2023-02-17T09:49:11.836Z,985.08
2023-02-17T09:50:11.862Z,985.17
2023-02-17T09:51:12.739Z,985.08
2023-02-17T09:52:11.745Z,985.11
2023-02-17T09:53:11.769Z,985.15
2023-02-17T09:54:11.892Z,985.10
2023-02-17T09:55:11.714Z,985.04
2023-02-17T09:56:11.702Z,985.07
2023-02-17T09:57:11.668Z,985.03
2023-02-17T09:58:11.699Z,985.12
2023-02-17T09:59:11.778Z,985.06
2023-02-17T10:00:11.675Z,985.15
2023-02-17T10:01:11.613Z,985.10
2023-02-17T10:02:11.608Z,985.10
2023-02-17T10:03:13.404Z,985.10
2023-02-17T10:04:11.685Z,985.18
2023-02-17T10:05:11.627Z,985.22
2023-02-17T10:06:11.616Z,985.15
2023-02-17T10:07:11.532Z,985.14
2023-02-17T10:08:11.589Z,985.19
2023-02-17T10:09:13.033Z,985.22
2023-02-17T10:10:11.520Z,985.07
2023-02-17T10:11:11.484Z,985.12
2023-02-17T10:12:11.473Z,985.20
2023-02-17T10:13:11.507Z,985.09
2023-02-17T10:14:11.446Z,985.15
2023-02-17T10:15:13.675Z,985.14
2023-02-17T10:16:11.488Z,985.10
2023-02-17T10:17:11.413Z,985.14
2023-02-17T10:18:11.509Z,985.13
2023-02-17T10:19:11.479Z,985.18
2023-02-17T10:20:11.358Z,985.14
2023-02-17T10:21:13.065Z,985.14
2023-02-17T10:22:11.326Z,985.16
2023-02-17T10:23:11.562Z,985.17
2023-02-17T10:24:11.338Z,985.28
2023-02-17T10:25:11.295Z,985.32
2023-02-17T10:26:11.294Z,985.18
2023-02-17T10:27:11.262Z,985.25
2023-02-17T10:28:11.247Z,985.15
2023-02-17T10:29:11.316Z,985.12
2023-02-17T10:30:11.285Z,985.16
2023-02-17T10:31:11.328Z,985.13
2023-02-17T10:32:11.341Z,985.11
2023-02-17T10:33:11.183Z,985.05
2023-02-17T10:34:11.252Z,985.11
2023-02-17T10:35:11.251Z,985.03
2023-02-17T10:36:11.188Z,985.02
2023-02-17T10:37:11.221Z,984.98
2023-02-17T10:38:11.166Z,984.95
2023-02-17T10:39:11.097Z,984.94
2023-02-17T10:40:11.091Z,984.91
2023-02-17T10:41:11.071Z,984.93
2023-02-17T10:42:11.432Z,984.90
2023-02-17T10:43:11.036Z,984.96
2023-02-17T10:44:11.027Z,984.89
2023-02-17T10:45:11.038Z,984.90
2023-02-17T10:46:11.005Z,985.03
2023-02-17T10:47:10.986Z,985.08
2023-02-17T10:48:10.967Z,985.05
2023-02-17T10:49:10.962Z,985.31
2023-02-17T10:50:10.945Z,985.35
2023-02-17T10:51:10.943Z,985.27
2023-02-17T10:52:10.926Z,985.33
2023-02-17T10:53:10.907Z,985.44
2023-02-17T10:54:10.894Z,985.46
2023-02-17T10:55:22.423Z,985.59
2023-02-17T10:56:11.891Z,985.58
2023-02-17T10:57:10.863Z,985.58
2023-02-17T10:58:10.864Z,985.52
2023-02-17T10:59:10.821Z,985.49
2023-02-17T11:00:10.811Z,985.54
2023-02-17T11:01:10.960Z,985.48
2023-02-17T11:02:10.783Z,985.47
2023-02-17T11:03:10.768Z,985.51
2023-02-17T11:04:13.414Z,985.39
2023-02-17T11:05:10.743Z,985.39
2023-02-17T11:06:10.737Z,985.30
2023-02-17T11:07:10.728Z,985.30
2023-02-17T11:08:10.734Z,985.33
2023-02-17T11:09:10.691Z,985.30
2023-02-17T11:10:13.020Z,985.37
2023-02-17T11:11:10.662Z,985.33
2023-02-17T11:12:10.660Z,985.28
2023-02-17T11:13:10.635Z,985.40
2023-02-17T11:14:10.708Z,985.45
2023-02-17T11:15:10.616Z,985.40
2023-02-17T11:16:13.955Z,985.37
2023-02-17T11:17:10.596Z,985.35
2023-02-17T11:18:10.579Z,985.37
2023-02-17T11:19:10.957Z,985.47
2023-02-17T11:20:10.572Z,985.41
2023-02-17T11:21:10.530Z,985.45
2023-02-17T11:22:12.919Z,985.47
2023-02-17T11:23:10.508Z,985.50
2023-02-17T11:24:10.489Z,985.49
2023-02-17T11:25:10.478Z,985.55
2023-02-17T11:26:10.469Z,985.50
2023-02-17T11:27:10.457Z,985.45
2023-02-17T11:28:10.435Z,985.47
2023-02-17T11:29:10.424Z,985.41
2023-02-17T11:30:10.512Z,985.40
2023-02-17T11:31:10.600Z,985.39
2023-02-17T11:32:10.405Z,985.40
2023-02-17T11:33:10.372Z,985.44
2023-02-17T11:34:10.354Z,985.30
2023-02-17T11:35:10.336Z,985.39
2023-02-17T11:36:10.323Z,985.37
2023-02-17T11:37:10.307Z,985.38
2023-02-17T11:38:10.309Z,985.38
2023-02-17T11:39:10.280Z,985.39
2023-02-17T11:40:10.267Z,985.32
2023-02-17T11:41:10.252Z,985.34
2023-02-17T11:42:10.244Z,985.26
2023-02-17T11:43:10.231Z,985.30
2023-02-17T11:44:10.265Z,985.25
2023-02-17T11:45:10.205Z,985.21
2023-02-17T11:46:10.332Z,985.36
2023-02-17T11:47:10.175Z,985.34
2023-02-17T11:48:10.163Z,985.26
2023-02-17T11:49:10.144Z,985.24
2023-02-17T11:50:10.135Z,985.27
2023-02-17T11:51:10.122Z,985.37
2023-02-17T11:52:10.124Z,985.30
2023-02-17T11:53:10.110Z,985.29
2023-02-17T11:54:10.080Z,985.34
2023-02-17T11:55:10.068Z,985.32
2023-02-17T11:56:10.256Z,985.35
2023-02-17T11:57:10.049Z,985.31
2023-02-17T11:58:10.023Z,985.24
2023-02-17T11:59:10.006Z,985.13
2023-02-17T12:00:09.989Z,985.15
2023-02-17T12:01:09.974Z,985.18
2023-02-17T12:02:09.985Z,985.15
2023-02-17T12:03:10.254Z,985.21
2023-02-17T12:04:09.941Z,985.20
2023-02-17T12:05:10.018Z,985.14
2023-02-17T12:06:09.923Z,985.09
2023-02-17T12:07:09.908Z,985.12
2023-02-17T12:08:09.882Z,985.15
2023-02-17T12:09:09.873Z,985.11
2023-02-17T12:10:09.874Z,985.14
2023-02-17T12:11:09.833Z,985.09
2023-02-17T12:12:09.825Z,985.08
2023-02-17T12:13:09.810Z,985.14
2023-02-17T12:14:09.796Z,985.13
2023-02-17T12:15:09.782Z,985.10
2023-02-17T12:16:10.228Z,985.15
2023-02-17T12:17:09.755Z,985.10
2023-02-17T12:18:09.764Z,985.08
2023-02-17T12:19:09.738Z,985.07
2023-02-17T12:20:09.717Z,985.12
2023-02-17T12:21:09.750Z,985.07
2023-02-17T12:22:09.693Z,985.16
2023-02-17T12:23:09.679Z,985.08
2023-02-17T12:24:09.658Z,985.13
2023-02-17T12:25:10.135Z,985.16
2023-02-17T12:26:09.631Z,985.28
2023-02-17T12:27:09.616Z,985.21
2023-02-17T12:28:09.620Z,985.30
2023-02-17T12:29:09.590Z,985.24